• Join FlightAware (Why Join?)
  • Login
  • US Flag 
11:28PM EDT


 

Airport Tracker/Info


-or-


 

Live Flight TrackerFlight Track Log ✈ SWA286 ✈ 12-May-2013 ✈ KBNA - KDEN

Flight Track Log - Related Links

Times and Time Zones

All times are in EDT time to prevent confusion due to time zone crossing. See the SWA286 flight status page for this flight to view local times or setup timezone preferences in your user account.

Time Position Orientation Groundspeed Altitude Reporting Facility
EDT Latitude Longitude Course Direction KTS MPH feet Rate Location/Type
05:00PM 36.1500 -86.6667 360° North 163 188 1,300  Level Nashville TRACON
05:01PM 36.1667 -86.6667 360° North 173 199 2,800 2,700 Climbing Nashville TRACON
05:02PM 36.2333 -86.6500 11° North 228 262 5,700 3,000 Climbing Nashville TRACON
05:03PM 36.2500 -86.7333 284° West 274 315 8,800 3,000 Climbing Nashville TRACON
05:04PM 36.2511 -86.7925 271° West 262 302 10,900 2,640 Climbing Memphis Center
05:05PM 36.2542 -86.9031 272° West 352 405 13,400 3,060 Climbing Memphis Center
05:06PM 36.2619 -87.0289 274° West 352 405 17,100 3,120 Climbing Memphis Center
05:07PM 36.2669 -87.1444 273° West 346 398 19,700 2,400 Climbing Memphis Center
05:08PM 36.2764 -87.2678 275° West 352 405 21,900 2,160 Climbing Memphis Center
05:09PM 36.2983 -87.3931 282° West 363 418 24,100 2,160 Climbing Memphis Center
05:10PM 36.3219 -87.5211 283° West 380 437 26,300 2,100 Climbing Memphis Center
05:11PM 36.3583 -87.6486 290° West 386 444 28,400 1,920 Climbing Memphis Center
05:12PM 36.3878 -87.7611 288° West 391 450 30,200 1,260 Climbing Memphis Center
05:13PM 36.4217 -87.8889 288° West 391 450 31,000 360 Climbing Memphis Center
05:14PM 36.4553 -88.0117 289° West 386 444 31,000 840 Level Memphis Center
05:15PM 36.4953 -88.1472 290° West 381 438 32,700 1,500 Climbing Memphis Center
05:16PM 36.5286 -88.2678 289° West 376 433 34,000 600 Climbing Memphis Center
05:17PM 36.5578 -88.3858 287° West 371 427 34,000  Level Memphis Center
05:18PM 36.5908 -88.5064 289° West 371 427 34,000  Level Memphis Center
05:19PM 36.6217 -88.6247 288° West 364 419 34,000  Level Memphis Center
05:20PM 36.6525 -88.7431 288° West 364 419 34,000  Level Memphis Center
05:21PM 36.6833 -88.8667 287° West 364 419 34,000  Level Memphis Center
05:22PM 36.7158 -88.9850 289° West 364 419 34,000  Level Memphis Center
05:23PM 36.7464 -89.1036 288° West 364 419 34,000  Level Memphis Center
05:24PM 36.7789 -89.2275 288° West 364 419 34,000  Level Memphis Center
05:25PM 36.8069 -89.3489 286° West 364 419 34,000  Level Memphis Center
05:26PM 36.8369 -89.4703 287° West 364 419 34,000  Level Memphis Center
05:27PM 36.8669 -89.5944 287° West 364 419 34,000  Level Memphis Center
05:28PM 36.8969 -89.7161 287° West 364 419 34,000  Level Memphis Center
05:29PM 36.9286 -89.8406 288° West 369 425 34,000  Level Memphis Center
05:30PM 36.9583 -89.9622 287° West 369 425 34,000  Level Memphis Center
05:31PM 36.9878 -90.0869 286° West 374 430 34,000  Level Memphis Center
05:32PM 37.0194 -90.2114 288° West 374 430 34,000  Level Memphis Center
05:34PM 37.0933 -90.5078 287° West 378 435 34,000  Level Kansas City Center
05:35PM 37.1242 -90.6342 287° West 380 437 34,000  Level Kansas City Center
05:36PM 37.1614 -90.7867 287° West 380 437 34,000  Level Kansas City Center
05:37PM 37.1925 -90.9125 287° West 378 435 34,000  Level Kansas City Center
05:38PM 37.2214 -91.0422 286° West 384 442 34,000  Level Kansas City Center
05:39PM 37.2522 -91.1714 287° West 385 443 34,000  Level Kansas City Center
05:40PM 37.2825 -91.2997 287° West 383 441 34,000  Level Kansas City Center
05:41PM 37.3133 -91.4308 287° West 386 444 34,000  Level Kansas City Center
05:42PM 37.3436 -91.5611 286° West 387 445 34,000  Level Kansas City Center
05:43PM 37.3808 -91.7189 287° West 389 448 34,000  Level Kansas City Center
05:45PM 37.4111 -91.8517 286° West 391 450 34,000  Level Kansas City Center
05:46PM 37.4414 -91.9850 286° West 393 452 34,000  Level Kansas City Center
05:47PM 37.4717 -92.1186 286° West 394 453 34,000  Level Kansas City Center
05:48PM 37.5019 -92.2536 286° West 396 456 34,000 180 Level Kansas City Center
05:49PM 37.5322 -92.3917 285° West 401 461 34,400 840 Climbing Kansas City Center
05:50PM 37.5625 -92.5283 286° West 403 464 35,800 1,200 Climbing Kansas City Center
05:51PM 37.5922 -92.6653 285° West 401 461 37,000 1,020 Climbing Kansas City Center
05:52PM 37.6236 -92.8017 286° West 402 463 38,000 480 Climbing Kansas City Center
05:53PM 37.6592 -92.9667 285° West 402 463 38,000  Level Kansas City Center
05:54PM 37.6900 -93.1047 286° West 405 466 38,000  Level Kansas City Center
05:55PM 37.7203 -93.2425 286° West 404 465 38,000  Level Kansas City Center
05:56PM 37.7500 -93.3814 285° West 407 468 38,000  Level Kansas City Center
05:57PM 37.7789 -93.5206 285° West 408 470 38,000  Level Kansas City Center
05:58PM 37.8081 -93.6617 285° West 411 473 38,000  Level Kansas City Center
05:59PM 37.8403 -93.8008 286° West 411 473 38,000  Level Kansas City Center
06:00PM 37.8750 -93.9714 285° West 414 476 38,000  Level Kansas City Center
06:01PM 37.9031 -94.1119 284° West 413 475 38,000  Level Kansas City Center
06:02PM 37.9331 -94.2522 285° West 411 473 38,000  Level Kansas City Center
06:03PM 37.9611 -94.3925 284° West 411 473 38,000  Level Kansas City Center
06:04PM 37.9892 -94.5258 285° West 409 471 38,000  Level Kansas City Center
06:05PM 38.0211 -94.6839 284° West 412 474 38,000  Level Kansas City Center
06:06PM 38.0475 -94.8189 284° West 412 474 38,000  Level Kansas City Center
06:07PM 38.0789 -94.9756 284° West 410 472 38,000  Level Kansas City Center
06:08PM 38.1067 -95.1150 284° West 417 480 38,000  Level Kansas City Center
06:09PM 38.1375 -95.2739 284° West 414 476 38,000  Level Kansas City Center
06:10PM 38.1642 -95.4114 284° West 417 480 38,000  Level Kansas City Center
06:11PM 38.1961 -95.5708 284° West 419 482 38,000  Level Kansas City Center
06:12PM 38.2222 -95.7108 283° West 424 488 38,000  Level Kansas City Center
06:13PM 38.2497 -95.8506 284° West 425 489 38,000  Level Kansas City Center
06:14PM 38.2808 -96.0144 284° West 426 490 38,000  Level Kansas City Center
06:16PM 38.3078 -96.1556 284° West 427 491 38,000  Level Kansas City Center
06:17PM 38.3383 -96.3200 283° West 427 491 38,000  Level Kansas City Center
06:18PM 38.3667 -96.4739 283° West 431 496 38,000  Level Kansas City Center
06:19PM 38.3919 -96.6086 284° West 428 493 38,000  Level Kansas City Center
06:20PM 38.4189 -96.7567 283° West 429 494 38,000  Level Kansas City Center
06:21PM 38.4519 -96.9369 283° West 426 490 38,000  Level Kansas City Center
06:22PM 38.4769 -97.0814 283° West 431 496 38,000  Level Kansas City Center
06:23PM 38.5036 -97.2294 283° West 430 495 38,000  Level Kansas City Center
06:24PM 38.5308 -97.3783 283° West 433 498 38,000  Level Kansas City Center
06:25PM 38.5558 -97.5275 282° West 433 498 38,000  Level Kansas City Center
06:26PM 38.5822 -97.6758 283° West 432 497 38,000  Level Kansas City Center
06:27PM 38.6128 -97.8528 283° West 427 491 38,000  Level Kansas City Center
06:28PM 38.6389 -97.9994 283° West 425 489 38,000  Level Kansas City Center
06:29PM 38.6631 -98.1464 282° West 425 489 38,000  Level Kansas City Center
06:30PM 38.6875 -98.2939 282° West 425 489 38,000  Level Kansas City Center
06:31PM 38.7122 -98.4406 282° West 425 489 38,000  Level Kansas City Center
06:32PM 38.7406 -98.6158 282° West 421 484 38,000  Level Kansas City Center
06:33PM 38.7656 -98.7625 282° West 423 487 38,000  Level Kansas City Center
06:34PM 38.7900 -98.9119 282° West 428 493 38,000  Level Kansas City Center
06:35PM 38.8142 -99.0608 282° West 428 493 38,000  Level Kansas City Center
06:36PM 38.8389 -99.2114 282° West 433 498 38,000  Level Kansas City Center
06:37PM 38.8492 -99.3897 274° West 447 514 38,000  Level Denver Center
06:38PM 38.8506 -99.5425 271° West 449 517 38,000  Level Denver Center
06:39PM 38.8519 -99.7194 271° West 446 513 38,000  Level Denver Center
06:40PM 38.8531 -99.8728 271° West 451 519 38,000  Level Denver Center
06:41PM 38.8533 -100.0514 270° West 449 517 38,000  Level Denver Center
06:42PM 38.8550 -100.2064 271° West 455 524 38,000  Level Denver Center
06:43PM 38.8553 -100.3606 270° West 452 520 38,000  Level Denver Center
06:44PM 38.8558 -100.5425 270° West 458 527 38,000  Level Denver Center
06:45PM 38.8556 -100.6953 270° West 452 520 38,000  Level Denver Center
06:46PM 38.8544 -100.8756 270° West 454 522 38,000  Level Denver Center
06:47PM 38.8542 -101.0297 270° West 454 522 38,000  Level Denver Center
06:48PM 38.8536 -101.2111 270° West 457 526 38,000  Level Denver Center
06:50PM 38.8522 -101.3669 269° West 458 527 38,000  Level Denver Center
06:51PM 38.8519 -101.5506 270° West 460 529 38,000 -1,200 Level Denver Center
06:52PM 38.8494 -101.7075 269° West 462 532 35,600 -1,980 Descending Denver Center
06:53PM 38.8483 -101.8903 270° West 461 531 34,000 -840 Descending Denver Center
06:54PM 38.8453 -102.0486 269° West 465 535 34,000  Level Denver Center
06:55PM 38.8611 -102.2269 277° West 455 524 34,000 -480 Level Denver Center
06:56PM 38.9053 -102.3672 292° West 444 511 33,100 -900 Descending Denver Center
06:57PM 38.9500 -102.5069 292° West 442 509 32,200 -900 Descending Denver Center
06:58PM 39.0022 -102.6708 292° West 444 511 31,300 -900 Descending Denver Center
06:59PM 39.0456 -102.8108 292° West 441 507 30,400 -1,020 Descending Denver Center
07:00PM 39.0978 -102.9725 293° West 440 506 29,300 -1,080 Descending Denver Center
07:01PM 39.1422 -103.1131 292° West 442 509 28,300 -1,260 Descending Denver Center
07:02PM 39.1914 -103.2725 292° West 435 501 26,800 -1,800 Descending Denver Center
07:03PM 39.2319 -103.4019 292° West 417 480 24,700 -2,280 Descending Denver Center
07:04PM 39.2767 -103.5461 292° West 399 459 22,200 -2,220 Descending Denver Center
07:05PM 39.3139 -103.6681 292° West 388 447 20,200 -1,980 Descending Denver Center
07:06PM 39.3503 -103.7875 292° West 380 437 18,200 -1,500 Descending Denver Center
07:07PM 39.3894 -103.9186 291° West 368 423 17,200 -1,320 Descending Denver Center
07:08PM 39.4006 -104.0386 277° West 323 372 15,600 -1,500 Descending Denver Center
07:09PM 39.4050 -104.1486 273° West 309 356 14,100 -1,080 Descending Denver Center
07:10PM 39.4089 -104.2514 273° West 289 333 13,400 -780 Descending Denver Center
07:11PM 39.4147 -104.3447 275° West 248 285 12,500 -1,020 Descending Denver Center
07:12PM 39.4178 -104.4297 273° West 238 274 11,300 -780 Descending Denver Center
07:13PM 39.4275 -104.5192 278° West 236 272 11,000 -360 Descending Denver Center
07:14PM 39.4650 -104.5894 305° West 243 280 10,600 -540 Descending Denver Center
07:15PM 39.5231 -104.6339 329° Northwest 244 281 10,000 -600 Descending Denver Center
07:16PM 39.5908 -104.6633 341° North 244 281 9,400 -780 Descending Denver Center
07:17PM 39.6536 -104.6631 360° North 228 262 8,400 -1,080 Descending Denver Center
07:18PM 39.7169 -104.6622 North 215 247 7,200 -960 Descending Denver Center
07:19PM 39.7681 -104.6617 360° North 191 220 6,500 -720 Descending Denver Center
07:20PM 39.8111 -104.6614 360° North 161 185 5,800 -540 Descending Denver Center
07:21PM 39.8558 -104.6606 North 153 176 5,400 -420 Descending Denver Center
07:23PM 39.8617 -104.6732 301° West  Level Estimated
07:30PM 39.8617 -104.6732 142° Southeast  Level Estimated
07:31PM 39.8617 -104.6732 142° Southeast  Level Estimated